sensor_id;sensor_type;location;lat;lon;timestamp;P1;durP1;ratioP1;P2;durP2;ratioP2
5475;SDS011;2760;50.000;9.194;2022-12-10T00:01:27;18.83;;;11.23;;
5475;SDS011;2760;50.000;9.194;2022-12-10T00:03:55;17.90;;;11.73;;
5475;SDS011;2760;50.000;9.194;2022-12-10T00:06:23;20.20;;;10.93;;
5475;SDS011;2760;50.000;9.194;2022-12-10T00:08:52;16.50;;;10.37;;
5475;SDS011;2760;50.000;9.194;2022-12-10T00:11:20;17.37;;;11.83;;
5475;SDS011;2760;50.000;9.194;2022-12-10T00:13:48;18.60;;;11.77;;
5475;SDS011;2760;50.000;9.194;2022-12-10T00:16:18;22.93;;;13.10;;
5475;SDS011;2760;50.000;9.194;2022-12-10T00:18:46;21.40;;;12.90;;
5475;SDS011;2760;50.000;9.194;2022-12-10T00:21:15;20.33;;;12.60;;
5475;SDS011;2760;50.000;9.194;2022-12-10T00:23:43;20.03;;;11.40;;
5475;SDS011;2760;50.000;9.194;2022-12-10T00:26:11;20.17;;;12.43;;
5475;SDS011;2760;50.000;9.194;2022-12-10T00:28:41;23.97;;;11.90;;
5475;SDS011;2760;50.000;9.194;2022-12-10T00:31:09;17.80;;;11.53;;
5475;SDS011;2760;50.000;9.194;2022-12-10T00:33:39;23.40;;;12.67;;
5475;SDS011;2760;50.000;9.194;2022-12-10T00:36:08;19.20;;;11.93;;
5475;SDS011;2760;50.000;9.194;2022-12-10T00:38:36;19.97;;;11.43;;
5475;SDS011;2760;50.000;9.194;2022-12-10T00:41:04;17.63;;;12.20;;
5475;SDS011;2760;50.000;9.194;2022-12-10T00:43:32;19.53;;;11.40;;
5475;SDS011;2760;50.000;9.194;2022-12-10T00:46:00;20.17;;;13.27;;
5475;SDS011;2760;50.000;9.194;2022-12-10T00:48:27;20.90;;;12.47;;
5475;SDS011;2760;50.000;9.194;2022-12-10T00:50:56;21.57;;;13.53;;
5475;SDS011;2760;50.000;9.194;2022-12-10T00:53:25;25.50;;;13.07;;
5475;SDS011;2760;50.000;9.194;2022-12-10T00:55:53;19.47;;;11.37;;
5475;SDS011;2760;50.000;9.194;2022-12-10T00:58:20;19.23;;;11.30;;
5475;SDS011;2760;50.000;9.194;2022-12-10T01:00:48;18.73;;;12.43;;
5475;SDS011;2760;50.000;9.194;2022-12-10T01:03:16;19.30;;;12.13;;
5475;SDS011;2760;50.000;9.194;2022-12-10T01:05:48;21.37;;;12.40;;
5475;SDS011;2760;50.000;9.194;2022-12-10T01:08:16;20.80;;;12.17;;
5475;SDS011;2760;50.000;9.194;2022-12-10T01:10:44;23.97;;;13.80;;
5475;SDS011;2760;50.000;9.194;2022-12-10T01:13:18;22.77;;;13.67;;
5475;SDS011;2760;50.000;9.194;2022-12-10T01:15:45;24.80;;;14.20;;
5475;SDS011;2760;50.000;9.194;2022-12-10T01:18:12;23.40;;;13.10;;
5475;SDS011;2760;50.000;9.194;2022-12-10T01:20:39;26.50;;;13.67;;
5475;SDS011;2760;50.000;9.194;2022-12-10T01:23:07;20.70;;;13.70;;
5475;SDS011;2760;50.000;9.194;2022-12-10T01:25:36;23.60;;;14.13;;
5475;SDS011;2760;50.000;9.194;2022-12-10T01:28:03;23.20;;;12.50;;
5475;SDS011;2760;50.000;9.194;2022-12-10T01:30:30;23.63;;;13.50;;
5475;SDS011;2760;50.000;9.194;2022-12-10T01:32:58;23.90;;;14.10;;
5475;SDS011;2760;50.000;9.194;2022-12-10T01:35:25;22.80;;;12.70;;
5475;SDS011;2760;50.000;9.194;2022-12-10T01:37:53;25.27;;;14.60;;
5475;SDS011;2760;50.000;9.194;2022-12-10T01:40:20;21.77;;;13.10;;
5475;SDS011;2760;50.000;9.194;2022-12-10T01:42:48;20.27;;;13.00;;
5475;SDS011;2760;50.000;9.194;2022-12-10T01:45:15;22.97;;;12.80;;
5475;SDS011;2760;50.000;9.194;2022-12-10T01:47:43;20.60;;;13.77;;
5475;SDS011;2760;50.000;9.194;2022-12-10T01:50:10;29.50;;;14.17;;
5475;SDS011;2760;50.000;9.194;2022-12-10T01:52:37;21.57;;;13.07;;
5475;SDS011;2760;50.000;9.194;2022-12-10T01:55:07;28.87;;;15.47;;
5475;SDS011;2760;50.000;9.194;2022-12-10T01:57:56;31.53;;;15.00;;
5475;SDS011;2760;50.000;9.194;2022-12-10T02:00:23;25.87;;;14.77;;
5475;SDS011;2760;50.000;9.194;2022-12-10T02:02:51;18.93;;;12.43;;
5475;SDS011;2760;50.000;9.194;2022-12-10T02:05:23;27.10;;;14.97;;
5475;SDS011;2760;50.000;9.194;2022-12-10T02:08:02;25.67;;;12.77;;
5475;SDS011;2760;50.000;9.194;2022-12-10T02:10:49;26.70;;;15.10;;
5475;SDS011;2760;50.000;9.194;2022-12-10T02:13:27;29.70;;;15.83;;
5475;SDS011;2760;50.000;9.194;2022-12-10T02:16:01;24.97;;;14.33;;
5475;SDS011;2760;50.000;9.194;2022-12-10T02:18:34;24.67;;;14.87;;
5475;SDS011;2760;50.000;9.194;2022-12-10T02:21:06;25.40;;;14.37;;
5475;SDS011;2760;50.000;9.194;2022-12-10T02:23:35;25.70;;;14.77;;
5475;SDS011;2760;50.000;9.194;2022-12-10T02:26:09;26.70;;;14.97;;
5475;SDS011;2760;50.000;9.194;2022-12-10T02:28:44;23.97;;;14.03;;
5475;SDS011;2760;50.000;9.194;2022-12-10T02:31:19;29.37;;;14.73;;
5475;SDS011;2760;50.000;9.194;2022-12-10T02:33:50;28.07;;;17.97;;
5475;SDS011;2760;50.000;9.194;2022-12-10T02:36:21;26.33;;;15.33;;
5475;SDS011;2760;50.000;9.194;2022-12-10T02:38:52;27.07;;;15.37;;
5475;SDS011;2760;50.000;9.194;2022-12-10T02:41:23;32.57;;;16.50;;
5475;SDS011;2760;50.000;9.194;2022-12-10T02:43:56;30.83;;;16.47;;
5475;SDS011;2760;50.000;9.194;2022-12-10T02:46:26;35.03;;;17.20;;
5475;SDS011;2760;50.000;9.194;2022-12-10T02:48:58;31.87;;;18.10;;
5475;SDS011;2760;50.000;9.194;2022-12-10T02:51:28;31.03;;;16.63;;
5475;SDS011;2760;50.000;9.194;2022-12-10T02:53:58;36.13;;;17.70;;
5475;SDS011;2760;50.000;9.194;2022-12-10T02:56:30;34.10;;;17.17;;
5475;SDS011;2760;50.000;9.194;2022-12-10T02:59:04;31.47;;;16.90;;
5475;SDS011;2760;50.000;9.194;2022-12-10T03:01:41;32.60;;;16.07;;
5475;SDS011;2760;50.000;9.194;2022-12-10T03:04:16;33.23;;;16.73;;
5475;SDS011;2760;50.000;9.194;2022-12-10T03:06:50;33.60;;;17.30;;
5475;SDS011;2760;50.000;9.194;2022-12-10T03:09:20;32.87;;;17.00;;
5475;SDS011;2760;50.000;9.194;2022-12-10T03:11:50;32.43;;;17.70;;
5475;SDS011;2760;50.000;9.194;2022-12-10T03:14:25;43.53;;;19.60;;
5475;SDS011;2760;50.000;9.194;2022-12-10T03:16:58;34.63;;;17.77;;
5475;SDS011;2760;50.000;9.194;2022-12-10T03:19:28;30.47;;;19.17;;
5475;SDS011;2760;50.000;9.194;2022-12-10T03:21:59;42.53;;;22.17;;
5475;SDS011;2760;50.000;9.194;2022-12-10T03:24:29;46.50;;;21.77;;
5475;SDS011;2760;50.000;9.194;2022-12-10T03:26:59;39.43;;;19.30;;
5475;SDS011;2760;50.000;9.194;2022-12-10T03:29:29;34.43;;;18.17;;
5475;SDS011;2760;50.000;9.194;2022-12-10T03:32:04;32.67;;;17.07;;
5475;SDS011;2760;50.000;9.194;2022-12-10T03:34:32;40.63;;;19.33;;
5475;SDS011;2760;50.000;9.194;2022-12-10T03:37:00;33.40;;;18.67;;
5475;SDS011;2760;50.000;9.194;2022-12-10T03:39:27;35.43;;;17.93;;
5475;SDS011;2760;50.000;9.194;2022-12-10T03:41:55;35.67;;;17.50;;
5475;SDS011;2760;50.000;9.194;2022-12-10T03:44:28;32.53;;;17.30;;
5475;SDS011;2760;50.000;9.194;2022-12-10T03:46:56;33.40;;;17.07;;
5475;SDS011;2760;50.000;9.194;2022-12-10T03:49:25;34.73;;;17.23;;
5475;SDS011;2760;50.000;9.194;2022-12-10T03:51:52;29.17;;;16.70;;
5475;SDS011;2760;50.000;9.194;2022-12-10T03:54:19;34.73;;;17.83;;
5475;SDS011;2760;50.000;9.194;2022-12-10T03:56:46;30.63;;;17.57;;
5475;SDS011;2760;50.000;9.194;2022-12-10T03:59:14;37.97;;;17.67;;
5475;SDS011;2760;50.000;9.194;2022-12-10T04:01:41;30.43;;;16.10;;
5475;SDS011;2760;50.000;9.194;2022-12-10T04:04:08;33.50;;;16.37;;
5475;SDS011;2760;50.000;9.194;2022-12-10T04:06:38;34.93;;;18.27;;
5475;SDS011;2760;50.000;9.194;2022-12-10T04:09:06;43.70;;;17.47;;
5475;SDS011;2760;50.000;9.194;2022-12-10T04:11:35;30.87;;;17.00;;
5475;SDS011;2760;50.000;9.194;2022-12-10T04:14:02;36.60;;;17.63;;
5475;SDS011;2760;50.000;9.194;2022-12-10T04:16:46;32.80;;;16.80;;
5475;SDS011;2760;50.000;9.194;2022-12-10T04:19:14;31.83;;;16.00;;
5475;SDS011;2760;50.000;9.194;2022-12-10T04:21:44;29.17;;;16.70;;
5475;SDS011;2760;50.000;9.194;2022-12-10T04:24:30;35.07;;;16.83;;
5475;SDS011;2760;50.000;9.194;2022-12-10T04:27:17;34.43;;;17.83;;
5475;SDS011;2760;50.000;9.194;2022-12-10T04:29:47;35.23;;;18.90;;
5475;SDS011;2760;50.000;9.194;2022-12-10T04:32:14;33.30;;;17.43;;
5475;SDS011;2760;50.000;9.194;2022-12-10T04:34:42;35.13;;;17.80;;
5475;SDS011;2760;50.000;9.194;2022-12-10T04:37:11;35.23;;;19.30;;
5475;SDS011;2760;50.000;9.194;2022-12-10T04:39:39;36.80;;;15.47;;
5475;SDS011;2760;50.000;9.194;2022-12-10T04:42:07;33.17;;;19.60;;
5475;SDS011;2760;50.000;9.194;2022-12-10T04:44:34;37.23;;;20.03;;
5475;SDS011;2760;50.000;9.194;2022-12-10T04:47:02;39.10;;;19.27;;
5475;SDS011;2760;50.000;9.194;2022-12-10T04:49:31;30.17;;;17.03;;
5475;SDS011;2760;50.000;9.194;2022-12-10T04:52:00;33.40;;;18.33;;
5475;SDS011;2760;50.000;9.194;2022-12-10T04:54:29;32.33;;;17.70;;
5475;SDS011;2760;50.000;9.194;2022-12-10T04:56:56;33.47;;;16.30;;
5475;SDS011;2760;50.000;9.194;2022-12-10T04:59:23;30.70;;;16.13;;
5475;SDS011;2760;50.000;9.194;2022-12-10T05:01:54;34.83;;;16.87;;
5475;SDS011;2760;50.000;9.194;2022-12-10T05:04:21;38.40;;;16.90;;
5475;SDS011;2760;50.000;9.194;2022-12-10T05:06:48;36.97;;;16.40;;
5475;SDS011;2760;50.000;9.194;2022-12-10T05:09:16;25.40;;;14.80;;
5475;SDS011;2760;50.000;9.194;2022-12-10T05:11:46;33.67;;;16.90;;
5475;SDS011;2760;50.000;9.194;2022-12-10T05:14:14;32.13;;;16.67;;
5475;SDS011;2760;50.000;9.194;2022-12-10T05:16:41;28.70;;;15.97;;
5475;SDS011;2760;50.000;9.194;2022-12-10T05:19:09;28.13;;;11.97;;
5475;SDS011;2760;50.000;9.194;2022-12-10T05:21:37;25.30;;;13.20;;
5475;SDS011;2760;50.000;9.194;2022-12-10T05:24:22;29.93;;;15.57;;
5475;SDS011;2760;50.000;9.194;2022-12-10T05:26:51;29.17;;;15.43;;
5475;SDS011;2760;50.000;9.194;2022-12-10T05:29:18;29.93;;;15.07;;
5475;SDS011;2760;50.000;9.194;2022-12-10T05:31:46;34.90;;;16.07;;
5475;SDS011;2760;50.000;9.194;2022-12-10T05:34:13;32.87;;;15.87;;
5475;SDS011;2760;50.000;9.194;2022-12-10T05:36:40;33.37;;;14.87;;
5475;SDS011;2760;50.000;9.194;2022-12-10T05:39:07;31.17;;;17.53;;
5475;SDS011;2760;50.000;9.194;2022-12-10T05:41:35;32.67;;;17.50;;
5475;SDS011;2760;50.000;9.194;2022-12-10T05:44:05;30.57;;;15.67;;
5475;SDS011;2760;50.000;9.194;2022-12-10T05:46:33;38.70;;;18.30;;
5475;SDS011;2760;50.000;9.194;2022-12-10T05:49:01;39.40;;;19.83;;
5475;SDS011;2760;50.000;9.194;2022-12-10T05:51:31;30.83;;;17.70;;
5475;SDS011;2760;50.000;9.194;2022-12-10T05:54:00;27.03;;;15.90;;
5475;SDS011;2760;50.000;9.194;2022-12-10T05:56:29;31.27;;;16.33;;
5475;SDS011;2760;50.000;9.194;2022-12-10T05:58:57;37.70;;;16.07;;
5475;SDS011;2760;50.000;9.194;2022-12-10T06:01:27;30.93;;;15.70;;
5475;SDS011;2760;50.000;9.194;2022-12-10T06:03:56;26.53;;;15.30;;
5475;SDS011;2760;50.000;9.194;2022-12-10T06:06:25;30.03;;;15.50;;
5475;SDS011;2760;50.000;9.194;2022-12-10T06:08:55;29.80;;;15.93;;
5475;SDS011;2760;50.000;9.194;2022-12-10T06:11:24;32.63;;;15.97;;
5475;SDS011;2760;50.000;9.194;2022-12-10T06:13:52;32.17;;;16.37;;
5475;SDS011;2760;50.000;9.194;2022-12-10T06:16:20;30.07;;;17.60;;
5475;SDS011;2760;50.000;9.194;2022-12-10T06:18:49;33.87;;;18.10;;
5475;SDS011;2760;50.000;9.194;2022-12-10T06:21:16;34.80;;;19.37;;
5475;SDS011;2760;50.000;9.194;2022-12-10T06:23:46;38.30;;;19.07;;
5475;SDS011;2760;50.000;9.194;2022-12-10T06:26:17;33.57;;;17.70;;
5475;SDS011;2760;50.000;9.194;2022-12-10T06:28:45;33.53;;;16.43;;
5475;SDS011;2760;50.000;9.194;2022-12-10T06:31:13;28.33;;;17.07;;
5475;SDS011;2760;50.000;9.194;2022-12-10T06:33:41;34.63;;;17.37;;
5475;SDS011;2760;50.000;9.194;2022-12-10T06:36:11;33.43;;;17.27;;
5475;SDS011;2760;50.000;9.194;2022-12-10T06:38:39;30.77;;;16.40;;
5475;SDS011;2760;50.000;9.194;2022-12-10T06:41:07;34.47;;;16.70;;
5475;SDS011;2760;50.000;9.194;2022-12-10T06:43:36;37.27;;;17.07;;
5475;SDS011;2760;50.000;9.194;2022-12-10T06:46:04;36.87;;;15.33;;
5475;SDS011;2760;50.000;9.194;2022-12-10T06:48:31;30.57;;;16.13;;
5475;SDS011;2760;50.000;9.194;2022-12-10T06:50:59;30.83;;;16.27;;
5475;SDS011;2760;50.000;9.194;2022-12-10T06:53:28;37.57;;;19.63;;
5475;SDS011;2760;50.000;9.194;2022-12-10T06:55:57;36.73;;;19.37;;
5475;SDS011;2760;50.000;9.194;2022-12-10T06:58:27;38.03;;;19.73;;
5475;SDS011;2760;50.000;9.194;2022-12-10T07:00:54;34.60;;;18.90;;
5475;SDS011;2760;50.000;9.194;2022-12-10T07:03:28;34.80;;;18.40;;
5475;SDS011;2760;50.000;9.194;2022-12-10T07:05:56;39.33;;;19.57;;
5475;SDS011;2760;50.000;9.194;2022-12-10T07:08:24;44.17;;;19.33;;
5475;SDS011;2760;50.000;9.194;2022-12-10T07:10:52;35.17;;;19.90;;
5475;SDS011;2760;50.000;9.194;2022-12-10T07:13:20;37.63;;;18.03;;
5475;SDS011;2760;50.000;9.194;2022-12-10T07:15:47;36.23;;;18.80;;
5475;SDS011;2760;50.000;9.194;2022-12-10T07:18:14;35.53;;;18.40;;
5475;SDS011;2760;50.000;9.194;2022-12-10T07:20:41;32.57;;;18.57;;
5475;SDS011;2760;50.000;9.194;2022-12-10T07:23:07;38.07;;;18.50;;
5475;SDS011;2760;50.000;9.194;2022-12-10T07:25:36;35.10;;;20.07;;
5475;SDS011;2760;50.000;9.194;2022-12-10T07:28:05;35.70;;;18.83;;
5475;SDS011;2760;50.000;9.194;2022-12-10T07:30:32;33.20;;;17.23;;
5475;SDS011;2760;50.000;9.194;2022-12-10T07:32:59;37.83;;;19.20;;
5475;SDS011;2760;50.000;9.194;2022-12-10T07:35:26;38.80;;;19.43;;
5475;SDS011;2760;50.000;9.194;2022-12-10T07:37:53;38.30;;;17.93;;
5475;SDS011;2760;50.000;9.194;2022-12-10T07:40:20;36.20;;;17.47;;
5475;SDS011;2760;50.000;9.194;2022-12-10T07:42:47;35.30;;;19.23;;
5475;SDS011;2760;50.000;9.194;2022-12-10T07:45:16;34.87;;;18.90;;
5475;SDS011;2760;50.000;9.194;2022-12-10T07:47:43;40.77;;;17.97;;
5475;SDS011;2760;50.000;9.194;2022-12-10T07:50:11;42.83;;;22.57;;
5475;SDS011;2760;50.000;9.194;2022-12-10T07:52:38;40.63;;;20.00;;
5475;SDS011;2760;50.000;9.194;2022-12-10T07:55:05;44.30;;;20.07;;
5475;SDS011;2760;50.000;9.194;2022-12-10T07:57:32;40.77;;;23.17;;
5475;SDS011;2760;50.000;9.194;2022-12-10T07:59:59;39.00;;;19.53;;
5475;SDS011;2760;50.000;9.194;2022-12-10T08:02:40;35.30;;;18.43;;
5475;SDS011;2760;50.000;9.194;2022-12-10T08:05:07;47.43;;;22.33;;
5475;SDS011;2760;50.000;9.194;2022-12-10T08:07:34;38.40;;;20.77;;
5475;SDS011;2760;50.000;9.194;2022-12-10T08:10:02;50.40;;;23.50;;
5475;SDS011;2760;50.000;9.194;2022-12-10T08:12:30;51.57;;;23.07;;
5475;SDS011;2760;50.000;9.194;2022-12-10T08:14:57;49.87;;;23.27;;
5475;SDS011;2760;50.000;9.194;2022-12-10T08:17:29;44.03;;;22.27;;
5475;SDS011;2760;50.000;9.194;2022-12-10T08:19:57;45.87;;;22.83;;
5475;SDS011;2760;50.000;9.194;2022-12-10T08:22:24;42.70;;;21.83;;
5475;SDS011;2760;50.000;9.194;2022-12-10T08:24:51;41.23;;;21.70;;
5475;SDS011;2760;50.000;9.194;2022-12-10T08:27:18;40.97;;;20.70;;
5475;SDS011;2760;50.000;9.194;2022-12-10T08:29:45;42.03;;;21.33;;
5475;SDS011;2760;50.000;9.194;2022-12-10T08:32:12;41.03;;;20.50;;
5475;SDS011;2760;50.000;9.194;2022-12-10T08:34:39;32.93;;;19.63;;
5475;SDS011;2760;50.000;9.194;2022-12-10T08:37:08;39.83;;;19.93;;
5475;SDS011;2760;50.000;9.194;2022-12-10T08:39:35;39.07;;;20.27;;
5475;SDS011;2760;50.000;9.194;2022-12-10T08:42:02;40.20;;;20.57;;
5475;SDS011;2760;50.000;9.194;2022-12-10T08:44:29;43.80;;;19.07;;
5475;SDS011;2760;50.000;9.194;2022-12-10T08:46:56;33.53;;;17.80;;
5475;SDS011;2760;50.000;9.194;2022-12-10T08:49:23;36.33;;;19.03;;
5475;SDS011;2760;50.000;9.194;2022-12-10T08:51:50;34.23;;;18.37;;
5475;SDS011;2760;50.000;9.194;2022-12-10T08:54:19;41.40;;;18.90;;
5475;SDS011;2760;50.000;9.194;2022-12-10T08:56:46;49.30;;;21.40;;
5475;SDS011;2760;50.000;9.194;2022-12-10T08:59:13;44.53;;;20.60;;
5475;SDS011;2760;50.000;9.194;2022-12-10T09:01:42;38.67;;;20.30;;
5475;SDS011;2760;50.000;9.194;2022-12-10T09:04:09;42.50;;;20.60;;
5475;SDS011;2760;50.000;9.194;2022-12-10T09:06:38;41.70;;;21.20;;
5475;SDS011;2760;50.000;9.194;2022-12-10T09:09:05;36.30;;;19.97;;
5475;SDS011;2760;50.000;9.194;2022-12-10T09:11:34;39.77;;;21.43;;
5475;SDS011;2760;50.000;9.194;2022-12-10T09:14:02;40.57;;;20.17;;
5475;SDS011;2760;50.000;9.194;2022-12-10T09:16:29;38.73;;;19.03;;
5475;SDS011;2760;50.000;9.194;2022-12-10T09:18:59;41.27;;;19.17;;
5475;SDS011;2760;50.000;9.194;2022-12-10T09:21:26;44.20;;;21.73;;
5475;SDS011;2760;50.000;9.194;2022-12-10T09:23:54;42.53;;;21.73;;
5475;SDS011;2760;50.000;9.194;2022-12-10T09:26:22;44.60;;;22.00;;
5475;SDS011;2760;50.000;9.194;2022-12-10T09:28:51;49.07;;;22.57;;
5475;SDS011;2760;50.000;9.194;2022-12-10T09:31:20;50.13;;;24.30;;
5475;SDS011;2760;50.000;9.194;2022-12-10T09:33:48;44.80;;;22.87;;
5475;SDS011;2760;50.000;9.194;2022-12-10T09:36:16;54.20;;;28.10;;
5475;SDS011;2760;50.000;9.194;2022-12-10T09:38:44;38.83;;;20.53;;
5475;SDS011;2760;50.000;9.194;2022-12-10T09:41:19;51.43;;;23.30;;
5475;SDS011;2760;50.000;9.194;2022-12-10T09:44:17;44.27;;;23.03;;
5475;SDS011;2760;50.000;9.194;2022-12-10T09:46:56;48.07;;;21.80;;
5475;SDS011;2760;50.000;9.194;2022-12-10T09:49:30;44.13;;;22.10;;
5475;SDS011;2760;50.000;9.194;2022-12-10T09:52:12;57.60;;;23.53;;
5475;SDS011;2760;50.000;9.194;2022-12-10T09:54:42;47.17;;;21.27;;
5475;SDS011;2760;50.000;9.194;2022-12-10T09:57:18;43.50;;;22.10;;
5475;SDS011;2760;50.000;9.194;2022-12-10T09:59:50;41.93;;;20.80;;
5475;SDS011;2760;50.000;9.194;2022-12-10T10:02:22;49.37;;;23.50;;
5475;SDS011;2760;50.000;9.194;2022-12-10T10:04:54;46.23;;;21.37;;
5475;SDS011;2760;50.000;9.194;2022-12-10T10:07:25;41.40;;;21.20;;
5475;SDS011;2760;50.000;9.194;2022-12-10T10:09:56;48.07;;;23.13;;
5475;SDS011;2760;50.000;9.194;2022-12-10T10:12:28;40.43;;;20.77;;
5475;SDS011;2760;50.000;9.194;2022-12-10T10:15:00;46.77;;;20.97;;
5475;SDS011;2760;50.000;9.194;2022-12-10T10:17:38;41.63;;;21.00;;
5475;SDS011;2760;50.000;9.194;2022-12-10T10:20:10;40.77;;;20.90;;
5475;SDS011;2760;50.000;9.194;2022-12-10T10:22:41;46.47;;;23.70;;
5475;SDS011;2760;50.000;9.194;2022-12-10T10:25:12;41.37;;;21.70;;
5475;SDS011;2760;50.000;9.194;2022-12-10T10:27:40;47.77;;;22.53;;
5475;SDS011;2760;50.000;9.194;2022-12-10T10:30:14;43.33;;;21.70;;
5475;SDS011;2760;50.000;9.194;2022-12-10T10:32:47;38.47;;;20.20;;
5475;SDS011;2760;50.000;9.194;2022-12-10T10:35:27;42.27;;;22.83;;
5475;SDS011;2760;50.000;9.194;2022-12-10T10:37:56;53.03;;;23.63;;
5475;SDS011;2760;50.000;9.194;2022-12-10T10:40:29;41.70;;;21.37;;
5475;SDS011;2760;50.000;9.194;2022-12-10T10:42:59;41.97;;;21.63;;
5475;SDS011;2760;50.000;9.194;2022-12-10T10:45:33;40.90;;;20.83;;
5475;SDS011;2760;50.000;9.194;2022-12-10T10:48:03;36.63;;;20.23;;
5475;SDS011;2760;50.000;9.194;2022-12-10T10:50:36;42.43;;;21.37;;
5475;SDS011;2760;50.000;9.194;2022-12-10T10:55:47;42.50;;;22.40;;
5475;SDS011;2760;50.000;9.194;2022-12-10T10:58:16;45.20;;;22.17;;
5475;SDS011;2760;50.000;9.194;2022-12-10T11:01:08;44.37;;;21.67;;
5475;SDS011;2760;50.000;9.194;2022-12-10T11:03:36;43.17;;;21.50;;
5475;SDS011;2760;50.000;9.194;2022-12-10T11:06:11;49.47;;;22.40;;
5475;SDS011;2760;50.000;9.194;2022-12-10T11:08:39;50.97;;;23.13;;
5475;SDS011;2760;50.000;9.194;2022-12-10T11:11:11;44.80;;;21.70;;
5475;SDS011;2760;50.000;9.194;2022-12-10T11:13:39;43.90;;;22.17;;
5475;SDS011;2760;50.000;9.194;2022-12-10T11:16:12;44.83;;;21.43;;
5475;SDS011;2760;50.000;9.194;2022-12-10T11:18:51;43.10;;;22.47;;
5475;SDS011;2760;50.000;9.194;2022-12-10T11:21:20;45.10;;;21.20;;
5475;SDS011;2760;50.000;9.194;2022-12-10T11:23:49;45.30;;;23.77;;
5475;SDS011;2760;50.000;9.194;2022-12-10T11:26:29;46.03;;;23.17;;
5475;SDS011;2760;50.000;9.194;2022-12-10T11:29:20;49.17;;;23.27;;
5475;SDS011;2760;50.000;9.194;2022-12-10T11:35:20;41.93;;;23.63;;
5475;SDS011;2760;50.000;9.194;2022-12-10T11:37:56;46.93;;;21.93;;
5475;SDS011;2760;50.000;9.194;2022-12-10T11:40:38;46.50;;;22.63;;
5475;SDS011;2760;50.000;9.194;2022-12-10T11:43:16;37.60;;;20.30;;
5475;SDS011;2760;50.000;9.194;2022-12-10T11:46:02;38.87;;;19.70;;
5475;SDS011;2760;50.000;9.194;2022-12-10T11:48:41;34.90;;;19.03;;
5475;SDS011;2760;50.000;9.194;2022-12-10T11:51:19;42.10;;;20.90;;
5475;SDS011;2760;50.000;9.194;2022-12-10T11:54:00;38.30;;;20.73;;
5475;SDS011;2760;50.000;9.194;2022-12-10T11:56:34;41.33;;;20.80;;
5475;SDS011;2760;50.000;9.194;2022-12-10T11:59:06;37.33;;;18.70;;
5475;SDS011;2760;50.000;9.194;2022-12-10T12:01:51;35.80;;;20.13;;
5475;SDS011;2760;50.000;9.194;2022-12-10T12:04:27;42.33;;;20.97;;
5475;SDS011;2760;50.000;9.194;2022-12-10T12:07:09;38.63;;;20.10;;
5475;SDS011;2760;50.000;9.194;2022-12-10T12:10:04;45.33;;;20.07;;
5475;SDS011;2760;50.000;9.194;2022-12-10T12:12:55;37.97;;;19.67;;
5475;SDS011;2760;50.000;9.194;2022-12-10T12:15:28;37.70;;;19.87;;
5475;SDS011;2760;50.000;9.194;2022-12-10T12:17:58;39.50;;;20.47;;
5475;SDS011;2760;50.000;9.194;2022-12-10T12:20:30;45.23;;;22.90;;
5475;SDS011;2760;50.000;9.194;2022-12-10T12:23:04;45.27;;;21.90;;
5475;SDS011;2760;50.000;9.194;2022-12-10T12:25:39;42.90;;;23.00;;
5475;SDS011;2760;50.000;9.194;2022-12-10T12:28:11;39.47;;;21.03;;
5475;SDS011;2760;50.000;9.194;2022-12-10T12:30:47;44.30;;;22.47;;
5475;SDS011;2760;50.000;9.194;2022-12-10T12:33:25;41.93;;;21.30;;
5475;SDS011;2760;50.000;9.194;2022-12-10T12:35:57;39.87;;;20.20;;
5475;SDS011;2760;50.000;9.194;2022-12-10T12:38:30;42.63;;;21.53;;
5475;SDS011;2760;50.000;9.194;2022-12-10T12:41:03;45.67;;;21.80;;
5475;SDS011;2760;50.000;9.194;2022-12-10T12:43:37;44.50;;;21.23;;
5475;SDS011;2760;50.000;9.194;2022-12-10T12:46:11;42.53;;;20.00;;
5475;SDS011;2760;50.000;9.194;2022-12-10T12:48:44;41.57;;;21.30;;
5475;SDS011;2760;50.000;9.194;2022-12-10T12:51:21;36.00;;;18.03;;
5475;SDS011;2760;50.000;9.194;2022-12-10T12:53:54;37.77;;;20.90;;
5475;SDS011;2760;50.000;9.194;2022-12-10T12:56:23;41.40;;;20.93;;
5475;SDS011;2760;50.000;9.194;2022-12-10T12:59:02;43.50;;;21.50;;
5475;SDS011;2760;50.000;9.194;2022-12-10T13:01:37;34.50;;;19.10;;
5475;SDS011;2760;50.000;9.194;2022-12-10T13:04:09;40.10;;;20.87;;
5475;SDS011;2760;50.000;9.194;2022-12-10T13:06:38;40.47;;;20.60;;
5475;SDS011;2760;50.000;9.194;2022-12-10T13:09:23;36.27;;;18.30;;
5475;SDS011;2760;50.000;9.194;2022-12-10T13:14:56;37.83;;;18.33;;
5475;SDS011;2760;50.000;9.194;2022-12-10T13:17:31;33.40;;;19.37;;
5475;SDS011;2760;50.000;9.194;2022-12-10T13:22:58;36.53;;;18.33;;
5475;SDS011;2760;50.000;9.194;2022-12-10T13:25:39;35.77;;;19.07;;
5475;SDS011;2760;50.000;9.194;2022-12-10T13:28:21;32.13;;;17.57;;
5475;SDS011;2760;50.000;9.194;2022-12-10T13:33:48;33.27;;;18.13;;
5475;SDS011;2760;50.000;9.194;2022-12-10T13:36:21;33.20;;;18.90;;
5475;SDS011;2760;50.000;9.194;2022-12-10T13:38:55;35.00;;;19.00;;
5475;SDS011;2760;50.000;9.194;2022-12-10T13:41:40;35.77;;;19.93;;
5475;SDS011;2760;50.000;9.194;2022-12-10T13:44:45;29.67;;;17.27;;
5475;SDS011;2760;50.000;9.194;2022-12-10T13:47:23;36.47;;;18.47;;
5475;SDS011;2760;50.000;9.194;2022-12-10T13:49:54;32.07;;;17.80;;
5475;SDS011;2760;50.000;9.194;2022-12-10T13:52:25;35.33;;;18.17;;
5475;SDS011;2760;50.000;9.194;2022-12-10T13:58:05;28.47;;;17.90;;
5475;SDS011;2760;50.000;9.194;2022-12-10T14:00:53;31.40;;;18.87;;
5475;SDS011;2760;50.000;9.194;2022-12-10T14:03:31;36.50;;;18.73;;
5475;SDS011;2760;50.000;9.194;2022-12-10T14:06:15;29.70;;;17.00;;
5475;SDS011;2760;50.000;9.194;2022-12-10T14:08:55;35.90;;;19.13;;
5475;SDS011;2760;50.000;9.194;2022-12-10T14:11:27;29.20;;;17.47;;
5475;SDS011;2760;50.000;9.194;2022-12-10T14:14:01;30.70;;;18.30;;
5475;SDS011;2760;50.000;9.194;2022-12-10T14:16:33;34.00;;;18.73;;
5475;SDS011;2760;50.000;9.194;2022-12-10T14:19:03;32.27;;;17.70;;
5475;SDS011;2760;50.000;9.194;2022-12-10T14:21:34;34.47;;;18.23;;
5475;SDS011;2760;50.000;9.194;2022-12-10T14:24:04;32.17;;;18.37;;
5475;SDS011;2760;50.000;9.194;2022-12-10T14:26:33;32.40;;;18.73;;
5475;SDS011;2760;50.000;9.194;2022-12-10T14:29:12;40.80;;;19.90;;
5475;SDS011;2760;50.000;9.194;2022-12-10T14:31:45;36.43;;;18.47;;
5475;SDS011;2760;50.000;9.194;2022-12-10T14:34:17;35.63;;;18.60;;
5475;SDS011;2760;50.000;9.194;2022-12-10T14:36:49;36.53;;;18.93;;
5475;SDS011;2760;50.000;9.194;2022-12-10T14:39:18;34.60;;;19.93;;
5475;SDS011;2760;50.000;9.194;2022-12-10T14:41:48;34.17;;;20.17;;
5475;SDS011;2760;50.000;9.194;2022-12-10T14:44:20;35.20;;;18.93;;
5475;SDS011;2760;50.000;9.194;2022-12-10T14:46:48;36.07;;;19.13;;
5475;SDS011;2760;50.000;9.194;2022-12-10T14:49:19;35.80;;;19.37;;
5475;SDS011;2760;50.000;9.194;2022-12-10T14:51:48;36.60;;;19.37;;
5475;SDS011;2760;50.000;9.194;2022-12-10T14:54:25;32.03;;;18.23;;
5475;SDS011;2760;50.000;9.194;2022-12-10T14:56:56;32.53;;;17.70;;
5475;SDS011;2760;50.000;9.194;2022-12-10T14:59:29;38.20;;;19.60;;
5475;SDS011;2760;50.000;9.194;2022-12-10T15:02:04;31.47;;;19.90;;
5475;SDS011;2760;50.000;9.194;2022-12-10T15:04:41;38.80;;;21.87;;
5475;SDS011;2760;50.000;9.194;2022-12-10T15:07:13;35.67;;;21.63;;
5475;SDS011;2760;50.000;9.194;2022-12-10T15:09:44;35.73;;;20.07;;
5475;SDS011;2760;50.000;9.194;2022-12-10T15:12:21;32.67;;;20.00;;
5475;SDS011;2760;50.000;9.194;2022-12-10T15:15:03;41.90;;;22.83;;
5475;SDS011;2760;50.000;9.194;2022-12-10T15:17:38;45.57;;;21.87;;
5475;SDS011;2760;50.000;9.194;2022-12-10T15:22:55;34.30;;;21.27;;
5475;SDS011;2760;50.000;9.194;2022-12-10T15:25:41;44.93;;;22.50;;
5475;SDS011;2760;50.000;9.194;2022-12-10T15:28:21;45.77;;;21.67;;
5475;SDS011;2760;50.000;9.194;2022-12-10T15:30:54;34.53;;;21.13;;
5475;SDS011;2760;50.000;9.194;2022-12-10T15:33:29;48.97;;;25.17;;